This is the latest recevied weather packets stored in our database for station/object W8RD. If no packets are shown the sender has not sent any weather packets the latest 10 day(s).
| Time | Temp. | Humidity | Pressure | Rain* | Wind** | Luminosity | Snow |
|---|---|---|---|---|---|---|---|
| 1777244284 | 25° C | 77% | 1012.9 hPa | 0 mm | - | 29 W/m² | - |
| 1777243684 | 25° C | 76% | 1012.8 hPa | 0 mm | - | 29 W/m² | - |
| 1777243082 | 25° C | 74% | 1012.7 hPa | 0 mm | - | 33 W/m² | - |
| 1777242482 | 25.56° C | 72% | 1012.9 hPa | 0 mm | - | 34 W/m² | - |
| 1777241882 | 25.56° C | 72% | 1012.7 hPa | 0 mm | - | 49 W/m² | - |
| 1777241277 | 25.56° C | 73% | 1012.8 hPa | 0 mm | - | 43 W/m² | - |
| 1777240672 | 25.56° C | 72% | 1013.1 hPa | 0 mm | - | 83 W/m² | - |
| 1777240066 | 26.11° C | 71% | 1012.9 hPa | 0 mm | - | 88 W/m² | - |
| 1777239466 | 27.78° C | 67% | 1013.1 hPa | 0 mm | - | 56 W/m² | - |
| 1777238860 | 28.89° C | 64% | 1013.1 hPa | 0 mm | - | 354 W/m² | - |
| 1777238260 | 28.89° C | 62% | 1012.8 hPa | 0 mm | - | 394 W/m² | - |
| 1777237658 | 28.89° C | 63% | 1012.9 hPa | 0 mm | - | 432 W/m² | - |
| 1777237053 | 27.78° C | 66% | 1013 hPa | 0 mm | - | 471 W/m² | - |
| 1777236449 | 27.78° C | 66% | 1013.3 hPa | 0 mm | - | 505 W/m² | - |
| 1777235848 | 27.78° C | 65% | 1013.2 hPa | 0 mm | - | 544 W/m² | - |
| 1777235247 | 28.33° C | 65% | 1013.2 hPa | 0 mm | - | 584 W/m² | - |
| 1777234646 | 28.33° C | 64% | 1013.1 hPa | 0 mm | - | 616 W/m² | - |
| 1777234043 | 28.33° C | 66% | 1013.2 hPa | 0 mm | - | 656 W/m² | - |
| 1777233441 | 28.33° C | 65% | 1013.1 hPa | 0 mm | - | 686 W/m² | - |
| 1777232837 | 28.33° C | 64% | 1013.2 hPa | 0 mm | - | 721 W/m² | - |
| 1777232234 | 28.33° C | 63% | 1013.4 hPa | 0 mm | - | 775 W/m² | - |
| 1777231632 | 27.78° C | 66% | 1013.5 hPa | 0 mm | - | 760 W/m² | - |
| 1777231030 | 28.89° C | 62% | 1013.5 hPa | 0 mm | - | 815 W/m² | - |
| 1777230427 | 28.33° C | 64% | 1013.5 hPa | 0 mm | - | 824 W/m² | - |
| 1777229826 | 27.78° C | 65% | 1013.6 hPa | 0 mm | - | 844 W/m² | - |
* Rain latest hour (hover to see other rain measurements)
** Current wind speed in m/s (hover to see current wind gust speed)